Time;durP1;ratioP1;P1;durP2;ratioP2;P2;SDS_P1;SDS_P2;PMS_P1;PMS_P2;Temp;Humidity;BMP_temperature;BMP_pressure;BME280_temperature;BME280_humidity;BME280_pressure;Samples;Min_cycle;Max_cycle;Signal;HPM_P1;HPM_P2
2022/05/29 00:01:42;;;;;;;5.40;1.85;;;;;;;;;;5073221;28;20102;-53
2022/05/29 00:04:07;;;;;;;6.15;1.92;;;;;;;;;;5072063;28;20285;-59
2022/05/29 00:06:39;;;;;;;6.57;1.92;;;;;;;;;;5076308;28;20032;-51
2022/05/29 00:09:04;;;;;;;9.45;2.00;;;;;;;;;;5088632;28;20032;-54
2022/05/29 00:11:31;;;;;;;5.70;2.17;;;;;;;;;;5091144;28;20036;-54
2022/05/29 00:14:00;;;;;;;7.80;2.05;;;;;;;;;;5072032;28;20039;-54
2022/05/29 00:16:28;;;;;;;4.80;1.88;;;;;;;;;;5072267;28;20069;-55
2022/05/29 00:18:54;;;;;;;6.95;2.63;;;;;;;;;;5071193;28;20032;-54
2022/05/29 00:21:20;;;;;;;9.88;2.17;;;;;;;;;;5079456;28;20099;-57
2022/05/29 00:23:49;;;;;;;7.72;3.40;;;;;;;;;;5078750;28;20035;-57
2022/05/29 00:26:15;;;;;;;4.95;2.00;;;;;;;;;;5077246;28;20024;-49
2022/05/29 00:28:40;;;;;;;4.50;1.98;;;;;;;;;;5090247;28;20035;-56
2022/05/29 00:31:06;;;;;;;7.10;2.08;;;;;;;;;;5094652;28;20169;-56
2022/05/29 00:33:31;;;;;;;6.57;1.98;;;;;;;;;;5076695;28;20473;-54
2022/05/29 00:35:56;;;;;;;8.45;2.15;;;;;;;;;;5073269;28;20056;-56
2022/05/29 00:38:22;;;;;;;4.35;2.20;;;;;;;;;;5077810;28;20043;-53
2022/05/29 00:40:59;;;;;;;7.22;2.50;;;;;;;;;;5083920;28;20036;-56
2022/05/29 00:43:25;;;;;;;8.65;2.45;;;;;;;;;;5079462;28;20464;-51
2022/05/29 00:46:00;;;;;;;7.20;2.05;;;;;;;;;;5055019;28;20025;-57
2022/05/29 00:48:27;;;;;;;5.90;2.22;;;;;;;;;;5100814;28;20035;-49
2022/05/29 00:50:56;;;;;;;6.28;2.40;;;;;;;;;;5080478;28;20028;-55
2022/05/29 00:53:22;;;;;;;7.82;2.22;;;;;;;;;;5082086;28;20055;-57
2022/05/29 00:55:56;;;;;;;4.22;2.20;;;;;;;;;;5070905;28;20370;-59
2022/05/29 00:58:22;;;;;;;7.30;2.35;;;;;;;;;;5073841;28;20062;-56
2022/05/29 01:00:49;;;;;;;4.45;1.98;;;;;;;;;;5091118;28;20472;-57
2022/05/29 01:03:15;;;;;;;7.10;2.20;;;;;;;;;;5084854;28;20031;-56
2022/05/29 01:05:41;;;;;;;5.47;2.30;;;;;;;;;;5090454;28;20039;-55
2022/05/29 01:08:18;;;;;;;8.10;2.70;;;;;;;;;;5077798;28;20044;-55
2022/05/29 01:10:49;;;;;;;6.25;2.70;;;;;;;;;;5084835;28;20028;-55
2022/05/29 01:13:33;;;;;;;;;;;;;;;;;;5086474;28;20028;-55
2022/05/29 01:16:12;;;;;;;7.15;2.40;;;;;;;;;;5069223;28;20319;-54
2022/05/29 01:18:44;;;;;;;7.00;2.38;;;;;;;;;;5073422;28;20051;-55
2022/05/29 01:21:29;;;;;;;6.82;2.47;;;;;;;;;;5090409;28;20032;-54
2022/05/29 01:24:03;;;;;;;8.23;2.70;;;;;;;;;;5070362;28;20124;-56
2022/05/29 01:26:58;;;;;;;5.45;2.40;;;;;;;;;;5091468;28;20106;-52
2022/05/29 01:29:48;;;;;;;4.88;2.25;;;;;;;;;;5094654;28;20165;-56
2022/05/29 01:32:26;;;;;;;6.32;2.35;;;;;;;;;;5080486;28;20055;-55
2022/05/29 01:34:54;;;;;;;6.35;2.40;;;;;;;;;;5090033;28;20039;-58
2022/05/29 01:37:27;;;;;;;9.77;2.33;;;;;;;;;;5094946;28;20028;-55
2022/05/29 01:40:10;;;;;;;7.72;2.63;;;;;;;;;;5083230;28;20074;-59
2022/05/29 01:42:42;;;;;;;7.68;2.25;;;;;;;;;;5074693;28;20429;-56
2022/05/29 01:45:20;;;;;;;9.55;2.58;;;;;;;;;;5080918;28;20033;-56
2022/05/29 01:47:52;;;;;;;7.97;2.63;;;;;;;;;;5073212;28;20396;-55
2022/05/29 01:50:31;;;;;;;5.40;2.50;;;;;;;;;;5075595;28;20040;-55
2022/05/29 01:53:05;;;;;;;6.28;2.50;;;;;;;;;;5079121;28;20575;-56
2022/05/29 01:55:39;;;;;;;6.13;2.80;;;;;;;;;;5078132;28;20043;-55
2022/05/29 01:58:10;;;;;;;7.57;2.67;;;;;;;;;;5078874;28;20103;-57
2022/05/29 02:00:36;;;;;;;8.75;2.63;;;;;;;;;;5074553;28;20097;-50
2022/05/29 02:03:07;;;;;;;10.05;2.65;;;;;;;;;;5083811;28;20468;-52
2022/05/29 02:05:48;;;;;;;7.35;2.60;;;;;;;;;;5056653;28;20063;-52
2022/05/29 02:08:19;;;;;;;5.47;2.60;;;;;;;;;;5090038;28;20103;-57
2022/05/29 02:10:54;;;;;;;7.82;2.58;;;;;;;;;;5094274;28;20472;-55
2022/05/29 02:14:14;;;;;;;5.57;2.53;;;;;;;;;;5078227;28;20120;-54
2022/05/29 02:17:04;;;;;;;9.85;2.60;;;;;;;;;;5087702;28;20048;-51
2022/05/29 02:19:45;;;;;;;7.38;2.40;;;;;;;;;;5074498;28;20138;-53
2022/05/29 02:22:14;;;;;;;8.93;2.75;;;;;;;;;;5056742;28;20083;-54
2022/05/29 02:24:50;;;;;;;7.38;2.70;;;;;;;;;;5074148;28;20464;-55
2022/05/29 02:27:27;;;;;;;6.40;2.63;;;;;;;;;;5073812;28;20024;-53
2022/05/29 02:29:54;;;;;;;7.25;2.80;;;;;;;;;;5083181;28;20036;-59
2022/05/29 02:32:41;;;;;;;8.90;2.75;;;;;;;;;;5073078;28;20039;-56
2022/05/29 02:35:40;;;;;;;7.32;2.65;;;;;;;;;;5072280;28;20397;-51
2022/05/29 02:38:07;;;;;;;8.48;2.80;;;;;;;;;;5064794;28;20065;-55
2022/05/29 02:40:57;;;;;;;8.57;2.92;;;;;;;;;;5085848;28;20059;-52
2022/05/29 02:43:45;;;;;;;11.13;2.85;;;;;;;;;;5073788;28;20538;-55
2022/05/29 02:46:31;;;;;;;7.97;2.58;;;;;;;;;;5056675;28;20434;-54
2022/05/29 02:49:21;;;;;;;8.95;2.72;;;;;;;;;;5071445;28;20086;-56
2022/05/29 02:51:47;;;;;;;8.15;2.60;;;;;;;;;;5088891;28;20032;-54
2022/05/29 02:54:19;;;;;;;9.13;2.90;;;;;;;;;;5090639;28;20122;-56
2022/05/29 02:56:45;;;;;;;4.07;2.58;;;;;;;;;;5093866;28;20115;-56
2022/05/29 02:59:11;;;;;;;8.50;2.92;;;;;;;;;;5091518;28;20572;-56
2022/05/29 03:01:49;;;;;;;8.50;3.05;;;;;;;;;;5064587;28;20353;-54
2022/05/29 03:04:36;;;;;;;8.20;2.72;;;;;;;;;;5089958;28;20032;-57
2022/05/29 03:07:09;;;;;;;8.77;3.20;;;;;;;;;;5087002;28;20107;-53
2022/05/29 03:10:05;;;;;;;5.78;2.80;;;;;;;;;;5078652;28;20036;-55
2022/05/29 03:13:05;;;;;;;7.85;2.90;;;;;;;;;;5086332;28;20052;-55
2022/05/29 03:15:30;;;;;;;7.95;2.90;;;;;;;;;;5072989;28;20056;-56
2022/05/29 03:18:09;;;;;;;9.98;3.40;;;;;;;;;;5079247;28;20511;-57
2022/05/29 03:21:07;;;;;;;6.10;2.85;;;;;;;;;;5072721;28;20480;-57
2022/05/29 03:23:41;;;;;;;7.15;2.88;;;;;;;;;;5050755;28;20035;-57
2022/05/29 03:26:13;;;;;;;9.15;3.28;;;;;;;;;;5075012;28;20059;-58
2022/05/29 03:28:58;;;;;;;9.15;3.20;;;;;;;;;;5085555;28;20031;-56
2022/05/29 03:31:36;;;;;;;9.23;3.30;;;;;;;;;;5092247;28;20024;-53
2022/05/29 03:34:02;;;;;;;9.18;2.97;;;;;;;;;;5071945;28;20037;-55
2022/05/29 03:36:31;;;;;;;8.23;2.90;;;;;;;;;;5090302;28;20062;-54
2022/05/29 03:38:56;;;;;;;6.72;2.67;;;;;;;;;;5066780;28;20032;-59
2022/05/29 03:41:43;;;;;;;7.75;2.88;;;;;;;;;;5071563;28;20039;-56
2022/05/29 03:44:09;;;;;;;12.68;3.22;;;;;;;;;;5071568;28;20048;-55
2022/05/29 03:46:34;;;;;;;11.65;3.08;;;;;;;;;;5072444;28;20028;-55
2022/05/29 03:48:59;;;;;;;11.18;2.90;;;;;;;;;;5084918;28;20042;-59
2022/05/29 03:51:25;;;;;;;8.60;2.85;;;;;;;;;;5091553;28;20039;-57
2022/05/29 03:53:50;;;;;;;11.48;3.20;;;;;;;;;;5087928;28;20377;-55
2022/05/29 03:56:16;;;;;;;6.53;2.70;;;;;;;;;;5087422;28;20047;-55
2022/05/29 03:58:41;;;;;;;9.40;3.20;;;;;;;;;;5087673;28;20073;-52
2022/05/29 04:01:07;;;;;;;8.05;2.92;;;;;;;;;;5087920;28;20036;-57
2022/05/29 04:03:34;;;;;;;6.38;2.67;;;;;;;;;;5082063;28;20029;-54
2022/05/29 04:05:59;;;;;;;5.40;2.90;;;;;;;;;;5071649;28;20460;-60
2022/05/29 04:13:53;;;;;;;11.60;3.45;;;;;;;;;;5071570;28;20606;-56
2022/05/29 04:16:18;;;;;;;8.07;3.25;;;;;;;;;;5070738;28;20147;-56
2022/05/29 04:18:44;;;;;;;6.88;3.15;;;;;;;;;;5073463;28;20024;-56
2022/05/29 04:21:09;;;;;;;7.10;3.00;;;;;;;;;;5091426;28;20028;-57
2022/05/29 04:23:35;;;;;;;5.68;2.58;;;;;;;;;;5089271;28;20094;-56
2022/05/29 04:26:00;;;;;;;6.32;2.67;;;;;;;;;;5072458;28;20024;-57
2022/05/29 04:28:26;;;;;;;14.60;3.08;;;;;;;;;;5071308;28;20401;-56
2022/05/29 04:30:51;;;;;;;6.65;2.72;;;;;;;;;;5081161;28;20055;-56
2022/05/29 04:33:17;;;;;;;8.68;3.40;;;;;;;;;;5090068;28;20045;-54
2022/05/29 04:35:47;;;;;;;7.93;3.05;;;;;;;;;;5071573;28;20380;-53
2022/05/29 04:38:13;;;;;;;7.57;2.88;;;;;;;;;;5070087;28;20431;-58
2022/05/29 04:40:40;;;;;;;5.20;2.88;;;;;;;;;;5089948;28;20035;-58
2022/05/29 04:43:06;;;;;;;5.80;2.92;;;;;;;;;;5071099;28;20044;-56
2022/05/29 04:45:32;;;;;;;5.55;2.72;;;;;;;;;;5091723;28;20105;-53
2022/05/29 04:47:58;;;;;;;6.55;3.28;;;;;;;;;;5090452;28;20058;-55
2022/05/29 04:50:23;;;;;;;7.50;3.50;;;;;;;;;;5078918;28;20420;-57
2022/05/29 04:52:50;;;;;;;7.57;3.17;;;;;;;;;;5092147;28;20444;-55
2022/05/29 04:55:17;;;;;;;11.18;3.38;;;;;;;;;;5089950;28;20056;-57
2022/05/29 04:57:42;;;;;;;9.52;3.83;;;;;;;;;;5091946;28;20032;-56
2022/05/29 05:00:09;;;;;;;7.22;3.17;;;;;;;;;;5085298;28;20055;-54
2022/05/29 05:02:34;;;;;;;7.72;3.70;;;;;;;;;;5071643;28;20028;-52
2022/05/29 05:04:59;;;;;;;6.72;3.97;;;;;;;;;;5077554;28;20464;-51
2022/05/29 05:07:25;;;;;;;9.20;3.47;;;;;;;;;;5076077;28;20228;-54
2022/05/29 05:09:50;;;;;;;8.85;3.88;;;;;;;;;;5086740;28;20028;-55
2022/05/29 05:12:16;;;;;;;7.43;4.07;;;;;;;;;;5094641;28;20461;-55
2022/05/29 05:14:42;;;;;;;7.80;3.80;;;;;;;;;;5075399;28;20033;-54
2022/05/29 05:17:08;;;;;;;7.38;3.40;;;;;;;;;;5084820;28;20452;-53
2022/05/29 05:19:33;;;;;;;8.10;3.70;;;;;;;;;;5093154;28;20021;-56
2022/05/29 05:22:03;;;;;;;12.30;3.92;;;;;;;;;;5095089;28;20028;-56
2022/05/29 05:24:29;;;;;;;7.72;3.28;;;;;;;;;;5088145;28;20112;-55
2022/05/29 05:26:56;;;;;;;8.65;3.40;;;;;;;;;;5107081;28;20107;-55
2022/05/29 05:29:22;;;;;;;11.32;3.45;;;;;;;;;;5085919;28;20093;-54
2022/05/29 05:31:48;;;;;;;9.80;3.85;;;;;;;;;;5103493;28;20097;-54
2022/05/29 05:34:13;;;;;;;9.18;3.58;;;;;;;;;;5088506;28;20453;-54
2022/05/29 05:36:39;;;;;;;11.13;3.53;;;;;;;;;;5076356;28;20040;-55
2022/05/29 05:39:04;;;;;;;7.75;3.22;;;;;;;;;;5081555;28;20456;-59
2022/05/29 05:41:29;;;;;;;7.55;3.33;;;;;;;;;;5078086;28;20032;-55
2022/05/29 05:43:55;;;;;;;8.55;3.17;;;;;;;;;;5078712;28;20069;-53
2022/05/29 05:46:20;;;;;;;8.23;3.33;;;;;;;;;;5081537;28;20035;-56
2022/05/29 05:48:46;;;;;;;8.50;3.15;;;;;;;;;;5085139;28;20036;-54
2022/05/29 05:51:12;;;;;;;10.82;3.65;;;;;;;;;;5073749;28;20029;-53
2022/05/29 05:53:39;;;;;;;7.90;3.65;;;;;;;;;;5077511;28;20397;-56
2022/05/29 05:56:06;;;;;;;10.52;3.50;;;;;;;;;;5088839;28;20103;-56
2022/05/29 05:58:32;;;;;;;7.75;3.55;;;;;;;;;;5094205;28;20081;-55
2022/05/29 06:01:02;;;;;;;7.97;3.40;;;;;;;;;;5093345;28;20032;-55
2022/05/29 06:03:27;;;;;;;8.00;2.93;;;;;;;;;;5091504;28;20186;-54
2022/05/29 06:05:53;;;;;;;5.63;3.13;;;;;;;;;;5093219;28;20719;-54
2022/05/29 06:08:18;;;;;;;9.45;3.60;;;;;;;;;;5084188;28;20035;-60
2022/05/29 06:10:43;;;;;;;6.97;3.13;;;;;;;;;;5061554;28;20036;-60
2022/05/29 06:13:09;;;;;;;7.53;3.22;;;;;;;;;;5092413;28;20028;-61
2022/05/29 06:15:35;;;;;;;5.15;2.90;;;;;;;;;;5111776;28;20456;-57
2022/05/29 06:18:00;;;;;;;9.27;3.15;;;;;;;;;;5074207;28;20384;-53
2022/05/29 06:20:26;;;;;;;8.38;3.20;;;;;;;;;;5089235;28;20039;-50
2022/05/29 06:22:51;;;;;;;7.80;3.17;;;;;;;;;;5114665;28;20024;-50
2022/05/29 06:25:17;;;;;;;8.10;3.10;;;;;;;;;;5092458;28;20463;-52
2022/05/29 06:27:44;;;;;;;10.18;3.25;;;;;;;;;;5087267;28;20472;-50
2022/05/29 06:30:13;;;;;;;6.03;3.08;;;;;;;;;;5073543;28;20021;-58
2022/05/29 06:32:39;;;;;;;9.25;3.40;;;;;;;;;;5075077;28;20052;-54
2022/05/29 06:35:06;;;;;;;7.10;3.00;;;;;;;;;;5086275;28;20094;-55
2022/05/29 06:37:32;;;;;;;8.93;3.10;;;;;;;;;;5095383;28;20395;-54
2022/05/29 06:39:58;;;;;;;6.45;3.05;;;;;;;;;;5091951;28;20032;-53
2022/05/29 06:42:24;;;;;;;6.72;2.92;;;;;;;;;;5074422;28;20036;-56
2022/05/29 06:44:49;;;;;;;8.40;3.33;;;;;;;;;;5073609;28;20024;-56
2022/05/29 06:47:15;;;;;;;9.15;3.10;;;;;;;;;;5080339;28;20033;-54
2022/05/29 06:49:41;;;;;;;8.82;3.30;;;;;;;;;;5073538;28;20075;-51
2022/05/29 06:52:09;;;;;;;11.25;3.60;;;;;;;;;;5087941;28;20085;-56
2022/05/29 06:54:35;;;;;;;8.68;3.10;;;;;;;;;;5072516;28;20048;-53
2022/05/29 06:57:01;;;;;;;7.05;3.35;;;;;;;;;;5093721;28;20028;-52
2022/05/29 06:59:26;;;;;;;7.53;3.20;;;;;;;;;;5090046;28;20035;-49
2022/05/29 07:07:23;;;;;;;11.27;3.75;;;;;;;;;;5077294;28;20082;-52
2022/05/29 07:09:48;;;;;;;5.45;2.95;;;;;;;;;;5077503;28;20392;-52
2022/05/29 07:12:21;;;;;;;6.60;3.20;;;;;;;;;;5099908;28;20456;-52
2022/05/29 07:15:06;;;;;;;11.32;3.80;;;;;;;;;;5090890;28;20528;-55
2022/05/29 07:17:32;;;;;;;7.95;3.22;;;;;;;;;;5072140;28;20112;-54
2022/05/29 07:19:58;;;;;;;7.15;3.30;;;;;;;;;;5073166;28;20031;-52
2022/05/29 07:22:25;;;;;;;7.53;3.17;;;;;;;;;;5072143;28;20025;-56
2022/05/29 07:24:50;;;;;;;8.60;3.42;;;;;;;;;;5102596;28;20020;-53
2022/05/29 07:27:16;;;;;;;8.57;3.20;;;;;;;;;;5108395;28;20096;-59
2022/05/29 07:29:42;;;;;;;9.40;3.00;;;;;;;;;;5089395;28;20039;-56
2022/05/29 07:32:08;;;;;;;7.47;3.45;;;;;;;;;;5080986;28;20476;-54
2022/05/29 07:34:33;;;;;;;7.32;3.10;;;;;;;;;;5083820;28;20531;-57
2022/05/29 07:37:08;;;;;;;6.75;3.00;;;;;;;;;;5072421;28;20032;-57
2022/05/29 07:39:37;;;;;;;8.77;3.50;;;;;;;;;;5078644;28;20020;-56
2022/05/29 07:44:48;;;;;;;7.18;2.75;;;;;;;;;;5084070;28;20075;-56
2022/05/29 07:47:13;;;;;;;7.47;3.60;;;;;;;;;;5097464;28;20454;-57
2022/05/29 07:49:39;;;;;;;8.30;3.25;;;;;;;;;;5074048;28;20495;-54
2022/05/29 07:52:05;;;;;;;8.73;3.67;;;;;;;;;;5087207;28;20055;-57
2022/05/29 07:54:30;;;;;;;7.93;2.90;;;;;;;;;;5083769;28;20044;-53
2022/05/29 07:56:55;;;;;;;7.95;2.95;;;;;;;;;;5080451;28;20174;-53
2022/05/29 07:59:22;;;;;;;9.55;3.10;;;;;;;;;;5100190;28;20091;-55
2022/05/29 08:01:48;;;;;;;5.53;2.60;;;;;;;;;;5102045;28;20036;-56
2022/05/29 08:04:14;;;;;;;6.18;2.70;;;;;;;;;;5071957;28;20055;-58
2022/05/29 08:06:40;;;;;;;6.45;2.60;;;;;;;;;;5070525;28;20042;-57
2022/05/29 08:09:05;;;;;;;8.55;3.10;;;;;;;;;;5078320;28;20032;-56
2022/05/29 08:11:31;;;;;;;6.22;2.55;;;;;;;;;;5071586;28;20532;-55
2022/05/29 08:13:56;;;;;;;6.70;2.15;;;;;;;;;;5080511;28;20036;-57
2022/05/29 08:16:22;;;;;;;6.53;2.25;;;;;;;;;;5090821;28;20119;-54
2022/05/29 08:18:47;;;;;;;4.97;2.50;;;;;;;;;;5074113;28;20071;-55
2022/05/29 08:21:13;;;;;;;9.38;3.05;;;;;;;;;;5076869;28;20024;-57
2022/05/29 08:23:38;;;;;;;6.30;2.72;;;;;;;;;;5090677;28;20430;-56
2022/05/29 08:31:32;;;;;;;9.70;2.70;;;;;;;;;;5086197;28;20501;-51
2022/05/29 08:33:57;;;;;;;7.80;2.58;;;;;;;;;;5091956;28;20056;-56
2022/05/29 08:36:26;;;;;;;7.30;2.75;;;;;;;;;;5089237;28;20071;-55
2022/05/29 08:38:54;;;;;;;8.80;2.67;;;;;;;;;;5075412;28;20033;-56
2022/05/29 08:41:33;;;;;;;11.43;2.78;;;;;;;;;;5080556;28;20031;-56
2022/05/29 08:44:06;;;;;;;7.30;2.08;;;;;;;;;;5088532;28;20028;-61
2022/05/29 08:46:44;;;;;;;5.70;1.90;;;;;;;;;;5080951;28;20158;-60
2022/05/29 08:49:15;;;;;;;6.30;2.08;;;;;;;;;;5091726;28;20028;-60
2022/05/29 08:52:02;;;;;;;5.43;2.60;;;;;;;;;;5083629;28;20043;-56
2022/05/29 08:54:43;;;;;;;6.13;2.20;;;;;;;;;;5070850;28;20075;-56
2022/05/29 08:57:27;;;;;;;7.88;2.28;;;;;;;;;;5088344;28;20039;-58
2022/05/29 08:59:57;;;;;;;7.47;2.75;;;;;;;;;;5099662;28;20181;-56
2022/05/29 09:02:29;;;;;;;6.88;2.30;;;;;;;;;;5072970;28;20066;-53
2022/05/29 09:05:09;;;;;;;7.15;2.75;;;;;;;;;;5091958;28;20035;-54
2022/05/29 09:07:38;;;;;;;6.60;3.25;;;;;;;;;;5091024;28;20115;-55
2022/05/29 09:10:18;;;;;;;5.88;2.33;;;;;;;;;;5076770;28;20036;-55
2022/05/29 09:12:49;;;;;;;10.70;2.87;;;;;;;;;;5053330;28;20059;-57
2022/05/29 09:15:23;;;;;;;4.28;2.58;;;;;;;;;;5071633;28;20024;-57
2022/05/29 09:17:55;;;;;;;7.63;2.55;;;;;;;;;;5072561;28;20040;-56
2022/05/29 09:20:39;;;;;;;13.25;3.85;;;;;;;;;;5088021;28;20040;-59
2022/05/29 09:23:07;;;;;;;5.95;3.13;;;;;;;;;;5091277;28;20024;-56
2022/05/29 09:25:38;;;;;;;7.38;2.78;;;;;;;;;;5090558;28;20042;-57
2022/05/29 09:28:40;;;;;;;4.18;2.30;;;;;;;;;;5082681;28;20119;-57
2022/05/29 09:31:14;;;;;;;6.07;2.22;;;;;;;;;;4989592;28;20554;-57
2022/05/29 09:33:40;;;;;;;5.88;2.00;;;;;;;;;;5057653;28;20033;-57
2022/05/29 09:36:17;;;;;;;5.43;1.80;;;;;;;;;;5071008;28;20044;-57
2022/05/29 09:38:48;;;;;;;2.88;1.80;;;;;;;;;;5069782;28;20427;-58
2022/05/29 09:41:22;;;;;;;5.10;2.10;;;;;;;;;;5053581;28;20389;-60
2022/05/29 09:44:08;;;;;;;5.57;2.28;;;;;;;;;;5070911;28;20029;-59
2022/05/29 09:46:50;;;;;;;6.03;2.33;;;;;;;;;;5070238;28;20033;-59
2022/05/29 09:49:40;;;;;;;5.18;2.20;;;;;;;;;;5085067;28;20039;-60
2022/05/29 09:52:20;;;;;;;7.40;2.22;;;;;;;;;;5093668;28;20036;-60
2022/05/29 09:55:06;;;;;;;5.70;2.40;;;;;;;;;;5094802;28;20048;-58
2022/05/29 09:57:43;;;;;;;4.85;2.15;;;;;;;;;;5092058;28;20054;-60
2022/05/29 10:00:26;;;;;;;5.82;2.33;;;;;;;;;;5076929;28;20529;-61
2022/05/29 10:02:52;;;;;;;5.75;2.50;;;;;;;;;;5094731;28;20461;-60
2022/05/29 10:05:35;;;;;;;5.28;2.55;;;;;;;;;;5094487;28;20034;-60
2022/05/29 10:08:26;;;;;;;6.13;2.50;;;;;;;;;;5092958;28;20536;-60
2022/05/29 10:10:52;;;;;;;6.57;2.83;;;;;;;;;;5083524;28;20051;-60
2022/05/29 10:13:35;;;;;;;6.90;2.58;;;;;;;;;;5076552;28;20028;-60
2022/05/29 10:16:01;;;;;;;5.20;2.58;;;;;;;;;;5076943;28;20032;-56
2022/05/29 10:18:38;;;;;;;7.63;2.70;;;;;;;;;;5074326;28;20024;-59
2022/05/29 10:21:21;;;;;;;5.25;2.70;;;;;;;;;;5092914;28;20036;-60
2022/05/29 10:24:20;;;;;;;7.63;3.00;;;;;;;;;;5093813;28;20060;-65
2022/05/29 10:26:49;;;;;;;5.20;3.05;;;;;;;;;;5109564;28;20090;-55
2022/05/29 10:29:35;;;;;;;6.45;2.85;;;;;;;;;;5061224;28;20392;-56
2022/05/29 10:32:04;;;;;;;8.60;2.88;;;;;;;;;;5073200;28;20069;-58
2022/05/29 10:34:32;;;;;;;5.00;2.60;;;;;;;;;;5073261;28;20094;-59
2022/05/29 10:36:58;;;;;;;8.07;3.30;;;;;;;;;;5088148;28;20126;-61
2022/05/29 10:39:29;;;;;;;6.88;3.60;;;;;;;;;;5074929;28;20055;-59
2022/05/29 10:41:55;;;;;;;6.03;3.17;;;;;;;;;;5074104;28;20033;-61
2022/05/29 10:44:44;;;;;;;8.90;3.63;;;;;;;;;;5084435;28;20428;-59
2022/05/29 10:47:28;;;;;;;10.75;3.92;;;;;;;;;;5073375;28;20068;-60
2022/05/29 10:49:56;;;;;;;9.68;3.75;;;;;;;;;;5073689;28;20483;-60
2022/05/29 10:52:45;;;;;;;9.25;3.78;;;;;;;;;;5073268;28;20028;-57
2022/05/29 10:55:16;;;;;;;9.32;3.55;;;;;;;;;;5075992;28;20040;-57
2022/05/29 10:57:45;;;;;;;10.18;3.70;;;;;;;;;;5085728;28;20468;-56
2022/05/29 11:00:29;;;;;;;6.70;3.30;;;;;;;;;;5093584;28;20064;-57
2022/05/29 11:03:18;;;;;;;6.95;3.20;;;;;;;;;;5093510;28;20031;-58
2022/05/29 11:06:09;;;;;;;8.18;2.90;;;;;;;;;;5077987;28;20056;-59
2022/05/29 11:08:46;;;;;;;;;;;;;;;;;;5080816;28;20029;-59
2022/05/29 11:11:15;;;;;;;5.90;2.65;;;;;;;;;;5073813;28;19958;-60
2022/05/29 11:14:24;;;;;;;1.20;1.10;;;;;;;;;;5072313;28;20507;-60
2022/05/29 11:17:15;;;;;;;1.98;1.20;;;;;;;;;;5022956;28;20048;-61
2022/05/29 11:19:59;;;;;;;4.07;1.55;;;;;;;;;;5030853;28;20040;-60
2022/05/29 11:22:52;;;;;;;3.42;1.42;;;;;;;;;;5055016;28;20035;-61
2022/05/29 11:25:55;;;;;;;1.55;1.30;;;;;;;;;;5072653;28;20388;-60
2022/05/29 11:29:04;;;;;;;4.03;1.50;;;;;;;;;;5072988;28;20089;-60
2022/05/29 11:31:41;;;;;;;2.17;1.40;;;;;;;;;;5008387;28;20045;-60
2022/05/29 11:34:09;;;;;;;4.75;1.70;;;;;;;;;;5072923;28;20381;-60
2022/05/29 11:36:47;;;;;;;6.10;1.80;;;;;;;;;;5071950;28;20140;-59
2022/05/29 11:39:30;;;;;;;4.55;1.80;;;;;;;;;;5083977;28;20043;-60
2022/05/29 11:42:10;;;;;;;5.50;2.05;;;;;;;;;;5093238;28;20059;-60
2022/05/29 11:44:51;;;;;;;4.68;1.80;;;;;;;;;;5089579;28;20036;-60
2022/05/29 11:51:19;;;;;;;10.00;2.63;;;;;;;;;;5092674;28;20012;-61
2022/05/29 11:53:32;;;;;;;5.10;1.98;;;;;;;;;;5080409;28;20073;-61
2022/05/29 11:56:03;;;;;;;6.20;2.80;;;;;;;;;;5085765;28;20036;-60
2022/05/29 11:58:40;;;;;;;4.43;1.90;;;;;;;;;;5091602;28;20094;-62
2022/05/29 12:01:11;;;;;;;5.38;2.70;;;;;;;;;;5092835;28;20028;-60
2022/05/29 12:03:51;;;;;;;7.05;2.10;;;;;;;;;;5091719;28;20032;-60
2022/05/29 12:06:38;;;;;;;3.80;1.67;;;;;;;;;;5090598;28;20038;-60
2022/05/29 12:09:29;;;;;;;6.32;1.58;;;;;;;;;;5092639;28;20028;-60
2022/05/29 12:12:01;;;;;;;7.22;2.60;;;;;;;;;;5087451;28;20044;-60
2022/05/29 12:14:33;;;;;;;5.40;2.13;;;;;;;;;;5090565;28;20024;-60
2022/05/29 12:17:25;;;;;;;4.85;1.80;;;;;;;;;;5072039;28;20037;-60
2022/05/29 12:19:58;;;;;;;7.15;2.10;;;;;;;;;;5070983;28;20028;-60
2022/05/29 12:22:28;;;;;;;5.45;1.98;;;;;;;;;;5072125;28;20028;-59
2022/05/29 12:24:56;;;;;;;5.75;1.70;;;;;;;;;;5072072;28;20126;-60
2022/05/29 12:27:24;;;;;;;6.03;2.15;;;;;;;;;;5072047;28;20035;-59
2022/05/29 12:30:02;;;;;;;3.83;1.70;;;;;;;;;;5070860;28;20643;-60
2022/05/29 12:32:30;;;;;;;6.47;2.10;;;;;;;;;;5078355;28;20528;-58
2022/05/29 12:35:15;;;;;;;6.55;1.90;;;;;;;;;;5084867;28;20036;-55
2022/05/29 12:37:46;;;;;;;7.18;2.10;;;;;;;;;;5084703;28;20082;-55
2022/05/29 12:40:59;;;;;;;6.03;1.90;;;;;;;;;;5080083;28;20427;-55
2022/05/29 12:43:34;;;;;;;4.95;1.92;;;;;;;;;;5061386;28;20040;-54
2022/05/29 12:46:18;;;;;;;5.40;1.85;;;;;;;;;;5070300;28;20041;-56
2022/05/29 12:49:28;;;;;;;4.25;1.65;;;;;;;;;;5102262;28;20024;-55
2022/05/29 12:52:18;;;;;;;4.78;1.80;;;;;;;;;;5085208;28;20035;-55
2022/05/29 12:55:01;;;;;;;4.97;1.85;;;;;;;;;;5077909;28;20044;-57
2022/05/29 12:57:44;;;;;;;7.03;1.65;;;;;;;;;;5071960;28;20066;-56
2022/05/29 13:00:22;;;;;;;5.38;1.80;;;;;;;;;;5081164;28;20063;-55
2022/05/29 13:03:21;;;;;;;7.80;2.20;;;;;;;;;;5087025;28;20036;-53
2022/05/29 13:06:13;;;;;;;5.30;2.00;;;;;;;;;;5086220;28;20024;-53
2022/05/29 13:08:57;;;;;;;6.80;1.60;;;;;;;;;;5078791;28;20428;-54
2022/05/29 13:11:27;;;;;;;6.57;1.75;;;;;;;;;;5071540;28;20043;-55
2022/05/29 13:13:59;;;;;;;5.40;1.38;;;;;;;;;;5086404;28;20599;-55
2022/05/29 13:16:38;;;;;;;4.78;1.38;;;;;;;;;;5091000;28;20035;-55
2022/05/29 13:21:57;;;;;;;2.70;1.17;;;;;;;;;;5085292;28;20032;-56
2022/05/29 13:24:26;;;;;;;4.63;1.23;;;;;;;;;;5079792;28;20332;-56
2022/05/29 13:27:09;;;;;;;3.85;1.40;;;;;;;;;;5076813;28;20041;-54
2022/05/29 13:29:37;;;;;;;4.32;1.20;;;;;;;;;;5090075;28;20480;-59
2022/05/29 13:32:15;;;;;;;2.00;1.02;;;;;;;;;;5069779;28;20031;-55
2022/05/29 13:34:45;;;;;;;4.18;1.27;;;;;;;;;;5078681;28;20040;-54
2022/05/29 13:37:32;;;;;;;2.75;1.30;;;;;;;;;;5080074;28;20021;-55
2022/05/29 13:40:00;;;;;;;3.50;1.27;;;;;;;;;;5076825;28;20103;-56
2022/05/29 13:42:35;;;;;;;5.53;1.20;;;;;;;;;;5093956;28;20024;-56
2022/05/29 13:45:23;;;;;;;4.00;1.30;;;;;;;;;;5092364;28;20054;-56
2022/05/29 13:48:18;;;;;;;3.20;1.30;;;;;;;;;;5093633;28;20460;-59
2022/05/29 13:50:44;;;;;;;3.55;1.27;;;;;;;;;;5092100;28;20379;-56
2022/05/29 13:53:23;;;;;;;2.20;1.27;;;;;;;;;;5094595;28;20460;-54
2022/05/29 13:55:57;;;;;;;4.10;1.40;;;;;;;;;;5090292;28;20442;-56
2022/05/29 14:05:04;;;;;;;4.28;1.23;;;;;;;;;;5078925;28;20496;-54
2022/05/29 14:07:33;;;;;;;2.95;1.50;;;;;;;;;;5011467;28;20502;-54
2022/05/29 14:10:01;;;;;;;2.90;1.40;;;;;;;;;;5010373;28;20061;-53
2022/05/29 14:12:48;;;;;;;3.10;1.25;;;;;;;;;;4992965;28;20491;-55
2022/05/29 14:15:45;;;;;;;4.07;1.50;;;;;;;;;;4978119;28;20639;-54
2022/05/29 14:18:22;;;;;;;5.90;1.55;;;;;;;;;;5000733;28;20056;-51
2022/05/29 14:21:42;;;;;;;;;;;;;;;;;;;;;
2022/05/29 14:24:36;;;;;;;2.97;1.30;;;;;;;;;;5011497;28;20030;-49
2022/05/29 14:27:13;;;;;;;6.53;1.50;;;;;;;;;;5010147;28;20034;-58
2022/05/29 14:30:05;;;;;;;4.13;1.60;;;;;;;;;;4975372;28;20034;-57
2022/05/29 14:32:49;;;;;;;5.63;1.70;;;;;;;;;;5003704;28;20069;-50
2022/05/29 14:35:33;;;;;;;2.92;1.20;;;;;;;;;;5009982;28;20045;-51
2022/05/29 14:38:25;;;;;;;5.78;1.50;;;;;;;;;;5034892;28;20473;-53
2022/05/29 14:41:00;;;;;;;2.63;1.42;;;;;;;;;;5088507;28;20122;-51
2022/05/29 14:43:28;;;;;;;8.02;1.40;;;;;;;;;;5047206;28;20451;-55
2022/05/29 14:46:40;;;;;;;3.67;1.20;;;;;;;;;;5089686;28;20104;-51
2022/05/29 14:49:11;;;;;;;4.43;1.30;;;;;;;;;;5093489;28;20088;-57
2022/05/29 14:51:41;;;;;;;;;;;;;;;;;;5089742;28;20032;-56
2022/05/29 14:54:34;;;;;;;2.80;1.25;;;;;;;;;;5094697;28;19916;-50
2022/05/29 14:57:07;;;;;;;2.70;1.35;;;;;;;;;;5079303;28;20601;-53
2022/05/29 14:59:35;;;;;;;4.38;1.30;;;;;;;;;;5095309;28;20051;-56
2022/05/29 15:02:06;;;;;;;5.78;1.27;;;;;;;;;;5082719;28;20050;-55
2022/05/29 15:04:35;;;;;;;3.78;1.27;;;;;;;;;;5094173;28;20028;-55
2022/05/29 15:12:36;;;;;;;4.13;1.40;;;;;;;;;;5077285;28;20119;-49
2022/05/29 15:15:21;;;;;;;6.40;1.52;;;;;;;;;;5077223;28;20028;-51
2022/05/29 15:17:48;;;;;;;4.43;1.48;;;;;;;;;;5092522;28;20472;-55
2022/05/29 15:26:11;;;;;;;4.53;1.35;;;;;;;;;;5076336;28;20035;-52
2022/05/29 15:28:41;;;;;;;3.47;1.30;;;;;;;;;;5076618;28;20033;-55
2022/05/29 15:31:11;;;;;;;2.10;1.20;;;;;;;;;;5075070;28;20036;-50
2022/05/29 15:34:14;;;;;;;2.45;1.17;;;;;;;;;;5083659;28;20480;-52
2022/05/29 15:37:17;;;;;;;4.13;1.30;;;;;;;;;;5088144;28;20039;-58
2022/05/29 15:39:57;;;;;;;2.72;1.30;;;;;;;;;;5072079;28;20051;-60
2022/05/29 15:42:27;;;;;;;3.53;1.33;;;;;;;;;;5088653;28;20384;-55
2022/05/29 15:45:05;;;;;;;2.08;1.20;;;;;;;;;;5091699;28;20032;-52
2022/05/29 15:47:30;;;;;;;4.15;1.20;;;;;;;;;;5072059;28;20127;-55
2022/05/29 15:50:10;;;;;;;4.55;1.60;;;;;;;;;;5071091;28;20210;-55
2022/05/29 15:53:09;;;;;;;4.03;1.42;;;;;;;;;;5087735;28;20130;-56
2022/05/29 15:55:45;;;;;;;5.18;1.33;;;;;;;;;;5091319;28;20051;-57
2022/05/29 15:58:18;;;;;;;3.63;1.75;;;;;;;;;;5091830;28;20035;-55
2022/05/29 16:01:02;;;;;;;4.50;2.10;;;;;;;;;;5089391;28;20387;-59
2022/05/29 16:03:30;;;;;;;3.33;1.40;;;;;;;;;;5083499;28;20111;-55
2022/05/29 16:06:23;;;;;;;3.80;1.60;;;;;;;;;;5077739;28;20029;-54
2022/05/29 16:09:14;;;;;;;3.40;1.52;;;;;;;;;;5070035;28;20028;-51